createdAt,value
2017-10-19T00:00:03.961Z,11.94
2017-10-19T00:01:03.934Z,11.96
2017-10-19T00:02:03.923Z,11.94
2017-10-19T00:03:03.936Z,11.87
2017-10-19T00:04:03.941Z,11.89
2017-10-19T00:05:03.934Z,11.83
2017-10-19T00:06:04.004Z,11.78
2017-10-19T00:07:03.947Z,11.82
2017-10-19T00:08:04.003Z,11.85
2017-10-19T00:09:03.960Z,11.78
2017-10-19T00:10:03.990Z,11.83
2017-10-19T00:11:03.974Z,11.80
2017-10-19T00:12:03.986Z,11.71
2017-10-19T00:13:04.007Z,11.77
2017-10-19T00:14:04.064Z,11.71
2017-10-19T00:15:04.017Z,11.71
2017-10-19T00:16:04.011Z,11.68
2017-10-19T00:17:04.006Z,11.65
2017-10-19T00:18:04.051Z,11.70
2017-10-19T00:19:04.056Z,11.72
2017-10-19T00:20:04.027Z,11.65
2017-10-19T00:21:04.126Z,11.71
2017-10-19T00:22:04.094Z,11.75
2017-10-19T00:23:04.041Z,11.67
2017-10-19T00:24:04.063Z,11.74
2017-10-19T00:25:04.108Z,11.65
2017-10-19T00:26:04.080Z,11.65
2017-10-19T00:27:04.092Z,11.68
2017-10-19T00:28:04.077Z,11.61
2017-10-19T00:29:04.147Z,11.56
2017-10-19T00:30:04.087Z,11.56
2017-10-19T00:31:04.142Z,11.62
2017-10-19T00:32:04.112Z,11.62
2017-10-19T00:33:04.130Z,11.70
2017-10-19T00:34:04.127Z,11.62
2017-10-19T00:35:04.118Z,11.72
2017-10-19T00:36:04.138Z,11.67
2017-10-19T00:37:04.122Z,11.67
2017-10-19T00:38:04.153Z,11.65
2017-10-19T00:39:04.146Z,11.65
2017-10-19T00:40:04.151Z,11.65
2017-10-19T00:41:04.162Z,11.64
2017-10-19T00:42:04.168Z,11.65
2017-10-19T00:43:04.206Z,11.65
2017-10-19T00:44:04.179Z,11.68
2017-10-19T00:45:04.179Z,11.65
2017-10-19T00:46:04.205Z,11.71
2017-10-19T00:47:04.177Z,11.62
2017-10-19T00:48:04.214Z,11.61
2017-10-19T00:49:04.216Z,11.54
2017-10-19T00:50:04.262Z,11.59
2017-10-19T00:51:04.218Z,11.61
2017-10-19T00:52:04.222Z,11.57
2017-10-19T00:53:04.241Z,11.62
2017-10-19T00:54:04.271Z,11.65
2017-10-19T00:55:04.258Z,11.68
2017-10-19T00:56:04.283Z,11.75
2017-10-19T00:57:04.271Z,11.83
2017-10-19T00:58:04.312Z,11.74
2017-10-19T00:59:04.283Z,11.61
2017-10-19T01:00:04.299Z,11.70
2017-10-19T01:01:04.290Z,11.65
2017-10-19T01:02:04.294Z,11.68
2017-10-19T01:03:04.338Z,11.67
2017-10-19T01:04:04.308Z,11.68
2017-10-19T01:05:04.362Z,11.75
2017-10-19T01:06:04.321Z,11.67
2017-10-19T01:07:04.330Z,11.61
2017-10-19T01:08:04.357Z,11.65
2017-10-19T01:09:04.361Z,11.68
2017-10-19T01:10:04.338Z,11.65
2017-10-19T01:11:04.375Z,11.62
2017-10-19T01:12:04.368Z,11.62
2017-10-19T01:13:04.369Z,11.61
2017-10-19T01:14:04.365Z,11.62
2017-10-19T01:15:04.378Z,11.53
2017-10-19T01:16:04.392Z,11.54
2017-10-19T01:17:04.433Z,11.56
2017-10-19T01:18:04.437Z,11.56
2017-10-19T01:19:04.394Z,11.54
2017-10-19T01:20:04.393Z,11.54
2017-10-19T01:21:04.397Z,11.50
2017-10-19T01:22:04.408Z,11.56
2017-10-19T01:23:04.432Z,11.53
2017-10-19T01:24:04.418Z,11.56
2017-10-19T01:25:04.417Z,11.57
2017-10-19T01:26:04.448Z,11.50
2017-10-19T01:27:04.506Z,11.57
2017-10-19T01:28:04.457Z,11.49
2017-10-19T01:29:04.528Z,11.54
2017-10-19T01:30:04.462Z,11.53
2017-10-19T01:31:04.492Z,11.54
2017-10-19T01:32:04.510Z,11.46
2017-10-19T01:33:04.525Z,11.49
2017-10-19T01:34:04.494Z,11.49
2017-10-19T01:35:04.493Z,11.44
2017-10-19T01:36:04.499Z,11.54
2017-10-19T01:37:04.526Z,11.53
2017-10-19T01:38:04.534Z,11.49
2017-10-19T01:39:04.535Z,11.50
2017-10-19T01:40:04.541Z,11.50
2017-10-19T01:41:04.556Z,11.50
2017-10-19T01:42:04.578Z,11.47
2017-10-19T01:43:04.564Z,11.49
2017-10-19T01:44:04.556Z,11.53
2017-10-19T01:45:04.606Z,11.49
2017-10-19T01:46:04.597Z,11.54
2017-10-19T01:47:04.571Z,11.54
2017-10-19T01:48:04.614Z,11.54
2017-10-19T01:49:04.603Z,11.56
2017-10-19T01:50:04.589Z,11.53
2017-10-19T01:51:04.590Z,11.54
2017-10-19T01:52:04.644Z,11.52
2017-10-19T01:53:04.599Z,11.47
2017-10-19T01:54:04.608Z,11.46
2017-10-19T01:55:04.617Z,11.47
2017-10-19T01:56:04.625Z,11.50
2017-10-19T01:57:04.704Z,11.52
2017-10-19T01:58:04.662Z,11.46
2017-10-19T01:59:04.653Z,11.49
2017-10-19T02:00:04.649Z,11.52
2017-10-19T02:01:04.648Z,11.50
2017-10-19T02:02:04.666Z,11.50
2017-10-19T02:03:04.673Z,11.50
2017-10-19T02:04:04.668Z,11.52
2017-10-19T02:05:04.673Z,11.44
2017-10-19T02:06:04.723Z,11.54
2017-10-19T02:07:04.705Z,11.49
2017-10-19T02:08:04.711Z,11.50
2017-10-19T02:09:04.713Z,11.53
2017-10-19T02:10:04.709Z,11.53
2017-10-19T02:11:04.721Z,11.52
2017-10-19T02:12:04.734Z,11.59
2017-10-19T02:13:04.790Z,11.61
2017-10-19T02:14:04.733Z,11.53
2017-10-19T02:15:04.752Z,11.61
2017-10-19T02:16:04.772Z,11.53
2017-10-19T02:17:04.803Z,11.61
2017-10-19T02:18:04.753Z,11.59
2017-10-19T02:19:04.791Z,11.53
2017-10-19T02:20:04.808Z,11.56
2017-10-19T02:21:04.840Z,11.56
2017-10-19T02:22:04.812Z,11.49
2017-10-19T02:23:04.791Z,11.50
2017-10-19T02:24:04.823Z,11.44
2017-10-19T02:25:04.801Z,11.52
2017-10-19T02:26:04.796Z,11.53
2017-10-19T02:27:04.823Z,11.56
2017-10-19T02:28:04.821Z,11.57
2017-10-19T02:29:04.846Z,11.57
2017-10-19T02:30:04.840Z,11.65
2017-10-19T02:31:04.865Z,11.53
2017-10-19T02:32:04.850Z,11.54
2017-10-19T02:33:04.842Z,11.49
2017-10-19T02:34:04.876Z,11.52
2017-10-19T02:35:04.893Z,11.47
2017-10-19T02:36:04.876Z,11.47
2017-10-19T02:37:04.866Z,11.53
2017-10-19T02:38:04.982Z,11.52
2017-10-19T02:39:04.914Z,11.53
2017-10-19T02:40:04.922Z,11.53
2017-10-19T02:41:04.919Z,11.41
2017-10-19T02:42:04.904Z,11.46
2017-10-19T02:43:04.934Z,11.54
2017-10-19T02:44:04.912Z,11.49
2017-10-19T02:45:04.934Z,11.44
2017-10-19T02:46:04.920Z,11.43
2017-10-19T02:47:05.001Z,11.36
2017-10-19T02:48:04.943Z,11.43
2017-10-19T02:49:04.940Z,11.41
2017-10-19T02:50:04.939Z,11.38
2017-10-19T02:51:04.953Z,11.43
2017-10-19T02:52:04.976Z,11.49
2017-10-19T02:53:04.966Z,11.46
2017-10-19T02:54:04.999Z,11.50
2017-10-19T02:55:05.002Z,11.50
2017-10-19T02:56:05.019Z,11.50
2017-10-19T02:57:05.005Z,11.46
2017-10-19T02:58:05.039Z,11.50
2017-10-19T02:59:05.001Z,11.34
2017-10-19T03:00:05.007Z,11.43
2017-10-19T03:01:05.011Z,11.50
2017-10-19T03:02:05.040Z,11.39
2017-10-19T03:03:05.072Z,11.49
2017-10-19T03:04:05.050Z,11.50
2017-10-19T03:05:05.052Z,11.38
2017-10-19T03:06:05.073Z,11.41
2017-10-19T03:07:05.074Z,11.41
2017-10-19T03:08:05.061Z,11.46
2017-10-19T03:09:05.062Z,11.44
2017-10-19T03:10:05.101Z,11.32
2017-10-19T03:11:05.080Z,11.36
2017-10-19T03:12:05.117Z,11.35
2017-10-19T03:13:05.102Z,11.31
2017-10-19T03:14:05.105Z,11.38
2017-10-19T03:15:05.109Z,11.39
2017-10-19T03:16:05.111Z,11.34
2017-10-19T03:17:05.134Z,11.38
2017-10-19T03:18:05.196Z,11.31
2017-10-19T03:19:05.116Z,11.28
2017-10-19T03:20:05.122Z,11.28
2017-10-19T03:21:05.179Z,11.27
2017-10-19T03:22:05.148Z,11.25
2017-10-19T03:23:05.148Z,11.32
2017-10-19T03:24:05.146Z,11.27
2017-10-19T03:25:05.185Z,11.17
2017-10-19T03:26:05.185Z,11.16
2017-10-19T03:27:05.158Z,11.25
2017-10-19T03:28:05.201Z,11.19
2017-10-19T03:29:05.186Z,11.19
2017-10-19T03:30:05.221Z,11.17
2017-10-19T03:31:05.199Z,11.20
2017-10-19T03:32:05.200Z,11.21
2017-10-19T03:33:05.258Z,11.20
2017-10-19T03:34:05.238Z,11.24
2017-10-19T03:35:05.245Z,11.20
2017-10-19T03:36:05.253Z,11.17
2017-10-19T03:37:05.236Z,11.16
2017-10-19T03:38:05.270Z,11.13
2017-10-19T03:39:05.264Z,11.06
2017-10-19T03:40:05.251Z,11.09
2017-10-19T03:41:05.301Z,11.02
2017-10-19T03:42:05.250Z,11.07
2017-10-19T03:43:05.288Z,11.06
2017-10-19T03:44:05.274Z,11.06
2017-10-19T03:45:05.280Z,11.02
2017-10-19T03:46:05.291Z,10.96
2017-10-19T03:47:05.318Z,10.91
2017-10-19T03:48:05.319Z,10.94
2017-10-19T03:49:05.322Z,10.91
2017-10-19T03:50:05.304Z,10.92
2017-10-19T03:51:05.317Z,10.94
2017-10-19T03:52:05.345Z,10.84
2017-10-19T03:53:05.312Z,10.84
2017-10-19T03:54:05.349Z,10.83
2017-10-19T03:55:05.337Z,10.88
2017-10-19T03:56:05.355Z,10.80
2017-10-19T03:57:05.349Z,10.81
2017-10-19T03:58:05.372Z,10.83
2017-10-19T03:59:05.386Z,10.83
2017-10-19T04:00:05.382Z,10.78
2017-10-19T04:01:05.460Z,10.74
2017-10-19T04:02:05.410Z,10.78
2017-10-19T04:03:05.400Z,10.78
2017-10-19T04:04:05.423Z,10.83
2017-10-19T04:05:05.423Z,10.78
2017-10-19T04:06:05.397Z,10.81
2017-10-19T04:07:05.419Z,10.94
2017-10-19T04:08:05.428Z,10.84
2017-10-19T04:09:05.436Z,10.84
2017-10-19T04:10:05.475Z,10.91
2017-10-19T04:11:05.453Z,10.89
2017-10-19T04:12:05.434Z,10.95
2017-10-19T04:13:05.464Z,10.88
2017-10-19T04:14:05.470Z,10.86
2017-10-19T04:15:05.487Z,10.77
2017-10-19T04:16:05.465Z,10.66
2017-10-19T04:17:05.513Z,10.66
2017-10-19T04:18:05.488Z,10.74
2017-10-19T04:19:05.512Z,10.73
2017-10-19T04:20:05.516Z,10.78
2017-10-19T04:21:05.508Z,10.78
2017-10-19T04:22:05.486Z,10.73
2017-10-19T04:23:05.569Z,10.73
2017-10-19T04:24:05.514Z,10.71
2017-10-19T04:25:05.509Z,10.77
2017-10-19T04:26:05.513Z,10.73
2017-10-19T04:27:05.521Z,10.73
2017-10-19T04:28:05.567Z,10.73
2017-10-19T04:29:05.536Z,10.78
2017-10-19T04:30:05.528Z,10.80
2017-10-19T04:31:05.549Z,10.78
2017-10-19T04:32:05.548Z,10.81
2017-10-19T04:33:05.621Z,10.89
2017-10-19T04:34:05.569Z,10.83
2017-10-19T04:35:05.572Z,10.83
2017-10-19T04:36:05.579Z,10.80
2017-10-19T04:37:05.568Z,10.78
2017-10-19T04:38:05.581Z,10.83
2017-10-19T04:39:05.607Z,10.77
2017-10-19T04:40:05.606Z,10.91
2017-10-19T04:41:05.609Z,10.88
2017-10-19T04:42:05.649Z,10.88
2017-10-19T04:43:05.599Z,10.83
2017-10-19T04:44:05.637Z,10.83
2017-10-19T04:45:05.652Z,10.81
2017-10-19T04:46:05.629Z,10.83
2017-10-19T04:47:05.657Z,10.80
2017-10-19T04:48:05.674Z,10.89
2017-10-19T04:49:05.640Z,10.94
2017-10-19T04:50:05.655Z,10.78
2017-10-19T04:51:05.669Z,10.86
2017-10-19T04:52:05.666Z,10.78
2017-10-19T04:53:05.696Z,10.66
2017-10-19T04:54:05.674Z,10.71
2017-10-19T04:55:05.687Z,10.73
2017-10-19T04:56:05.709Z,10.70
2017-10-19T04:57:05.701Z,10.65
2017-10-19T04:58:05.700Z,10.73
2017-10-19T04:59:05.760Z,10.73
2017-10-19T05:00:05.712Z,10.66
2017-10-19T05:01:05.728Z,10.63
2017-10-19T05:02:05.720Z,10.73
2017-10-19T05:03:05.739Z,10.70
2017-10-19T05:04:05.763Z,10.65
2017-10-19T05:05:05.768Z,10.71
2017-10-19T05:06:05.759Z,10.68
2017-10-19T05:07:05.764Z,10.74
2017-10-19T05:08:05.745Z,10.70
2017-10-19T05:09:05.776Z,10.62
2017-10-19T05:10:05.772Z,10.71
2017-10-19T05:11:05.776Z,10.73
2017-10-19T05:12:05.768Z,10.66
2017-10-19T05:13:05.770Z,10.68
2017-10-19T05:14:05.789Z,10.65
2017-10-19T05:15:05.818Z,10.66
2017-10-19T05:16:05.793Z,10.68
2017-10-19T05:17:05.813Z,10.62
2017-10-19T05:18:05.818Z,10.68
2017-10-19T05:19:05.820Z,10.60
2017-10-19T05:20:05.842Z,10.59
2017-10-19T05:21:05.832Z,10.58
2017-10-19T05:22:05.868Z,10.66
2017-10-19T05:23:05.852Z,10.62
2017-10-19T05:24:05.854Z,10.73
2017-10-19T05:25:05.861Z,10.65
2017-10-19T05:26:05.882Z,10.71
2017-10-19T05:27:05.854Z,10.62
2017-10-19T05:28:05.933Z,10.66
2017-10-19T05:29:05.867Z,10.68
2017-10-19T05:30:05.893Z,10.73
2017-10-19T05:31:05.907Z,10.65
2017-10-19T05:32:05.886Z,10.65
2017-10-19T05:33:05.917Z,10.73
2017-10-19T05:34:05.904Z,10.65
2017-10-19T05:35:05.925Z,10.65
2017-10-19T05:36:05.978Z,10.76
2017-10-19T05:37:05.925Z,10.63
2017-10-19T05:38:05.924Z,10.76
2017-10-19T05:39:05.924Z,10.66
2017-10-19T05:40:05.937Z,10.71
2017-10-19T05:41:05.961Z,10.71
2017-10-19T05:42:05.964Z,10.71
2017-10-19T05:43:05.955Z,10.73
2017-10-19T05:44:05.976Z,10.65
2017-10-19T05:45:05.960Z,10.66
2017-10-19T05:46:05.969Z,10.70
2017-10-19T05:47:05.972Z,10.71
2017-10-19T05:48:05.974Z,10.74
2017-10-19T05:49:05.993Z,10.73
2017-10-19T05:50:06.017Z,10.80
2017-10-19T05:51:06.052Z,10.74
2017-10-19T05:52:06.028Z,10.74
2017-10-19T05:53:06.069Z,10.77
2017-10-19T05:54:06.005Z,10.73
2017-10-19T05:55:06.022Z,10.74
2017-10-19T05:56:06.024Z,10.74
2017-10-19T05:57:06.060Z,10.74
2017-10-19T05:58:06.052Z,10.70
2017-10-19T05:59:06.036Z,10.78
2017-10-19T06:00:06.041Z,10.74
2017-10-19T06:01:06.049Z,10.74
2017-10-19T06:02:06.119Z,10.74
2017-10-19T06:03:06.084Z,10.74
2017-10-19T06:04:06.096Z,10.81
2017-10-19T06:05:06.096Z,10.78
2017-10-19T06:06:06.093Z,10.91
2017-10-19T06:07:06.081Z,10.84
2017-10-19T06:08:06.092Z,10.95
2017-10-19T06:09:06.108Z,10.95
2017-10-19T06:10:06.133Z,11.06
2017-10-19T06:11:06.159Z,11.13
2017-10-19T06:12:06.148Z,11.10
2017-10-19T06:13:06.130Z,11.16
2017-10-19T06:14:06.131Z,11.11
2017-10-19T06:15:06.148Z,11.13
2017-10-19T06:16:06.150Z,11.09
2017-10-19T06:17:06.162Z,11.17
2017-10-19T06:18:06.158Z,11.24
2017-10-19T06:19:06.153Z,11.25
2017-10-19T06:20:06.209Z,11.31
2017-10-19T06:21:06.168Z,11.32
2017-10-19T06:22:06.179Z,11.35
2017-10-19T06:23:06.204Z,11.34
2017-10-19T06:24:06.218Z,11.28
2017-10-19T06:25:06.189Z,11.29
2017-10-19T06:26:06.209Z,11.35
2017-10-19T06:27:06.238Z,11.35
2017-10-19T06:28:06.239Z,11.36
2017-10-19T06:29:06.247Z,11.41
2017-10-19T06:30:06.222Z,11.46
2017-10-19T06:31:06.242Z,11.44
2017-10-19T06:32:06.264Z,11.38
2017-10-19T06:33:06.269Z,11.39
2017-10-19T06:34:06.261Z,11.43
2017-10-19T06:35:06.242Z,11.44
2017-10-19T06:36:06.297Z,11.49
2017-10-19T06:37:06.279Z,11.50
2017-10-19T06:38:06.279Z,11.49
2017-10-19T06:39:06.300Z,11.57
2017-10-19T06:40:06.342Z,11.54
2017-10-19T06:41:06.289Z,11.57
2017-10-19T06:42:06.333Z,11.64
2017-10-19T06:43:06.327Z,11.65
2017-10-19T06:44:06.335Z,11.65
2017-10-19T06:45:06.314Z,11.59
2017-10-19T06:46:06.343Z,11.61
2017-10-19T06:47:06.355Z,11.72
2017-10-19T06:48:06.347Z,11.68
2017-10-19T06:49:06.399Z,11.75
2017-10-19T06:50:06.381Z,11.83
2017-10-19T06:51:06.360Z,11.80
2017-10-19T06:52:06.364Z,11.86
2017-10-19T06:53:06.379Z,11.90
2017-10-19T06:54:06.373Z,11.85
2017-10-19T06:55:06.391Z,11.90
2017-10-19T06:56:06.431Z,12.01
2017-10-19T06:57:06.426Z,11.99
2017-10-19T06:58:06.398Z,11.96
2017-10-19T06:59:06.410Z,12.01
2017-10-19T07:00:06.427Z,12.08
2017-10-19T07:01:06.455Z,12.09
2017-10-19T07:02:06.430Z,12.13
2017-10-19T07:03:06.507Z,12.13
2017-10-19T07:04:06.435Z,12.12
2017-10-19T07:05:06.443Z,12.20
2017-10-19T07:06:06.453Z,12.21
2017-10-19T07:07:06.484Z,12.27
2017-10-19T07:08:06.462Z,12.38
2017-10-19T07:09:06.475Z,12.31
2017-10-19T07:10:06.462Z,12.37
2017-10-19T07:11:06.485Z,12.34
2017-10-19T07:12:06.500Z,12.37
2017-10-19T07:13:06.486Z,12.46
2017-10-19T07:14:06.512Z,12.34
2017-10-19T07:15:06.525Z,12.51
2017-10-19T07:16:06.568Z,12.44
2017-10-19T07:17:06.540Z,12.54
2017-10-19T07:18:06.546Z,12.57
2017-10-19T07:19:06.534Z,12.64
2017-10-19T07:20:06.541Z,12.66
2017-10-19T07:21:06.592Z,12.62
2017-10-19T07:22:06.563Z,12.67
2017-10-19T07:23:06.585Z,12.69
2017-10-19T07:24:06.593Z,12.69
2017-10-19T07:25:06.576Z,12.77
2017-10-19T07:26:06.582Z,12.75
2017-10-19T07:27:06.599Z,12.96
2017-10-19T07:28:06.618Z,12.88
2017-10-19T07:29:06.669Z,12.95
2017-10-19T07:30:06.616Z,12.95
2017-10-19T07:31:06.611Z,12.92
2017-10-19T07:32:06.635Z,12.99
2017-10-19T07:33:06.661Z,12.97
2017-10-19T07:34:06.658Z,13.04
2017-10-19T07:35:06.678Z,13.03
2017-10-19T07:36:06.657Z,13.12
2017-10-19T07:37:06.676Z,13.14
2017-10-19T07:38:06.694Z,13.18
2017-10-19T07:39:06.751Z,13.22
2017-10-19T07:40:06.683Z,13.32
2017-10-19T07:41:06.692Z,13.37
2017-10-19T07:42:06.719Z,13.44
2017-10-19T07:43:06.733Z,13.41
2017-10-19T07:44:06.707Z,13.46
2017-10-19T07:45:06.729Z,13.55
2017-10-19T07:46:06.771Z,13.52
2017-10-19T07:47:06.777Z,13.63
2017-10-19T07:48:06.780Z,13.77
2017-10-19T07:49:06.755Z,13.83
2017-10-19T07:50:06.764Z,13.80
2017-10-19T07:51:06.778Z,13.92
2017-10-19T07:52:06.776Z,13.92
2017-10-19T07:53:06.803Z,13.99
2017-10-19T07:54:06.850Z,14.04
2017-10-19T07:55:06.849Z,14.14
2017-10-19T07:56:06.807Z,14.14
2017-10-19T07:57:06.822Z,14.14
2017-10-19T07:58:06.837Z,14.28
2017-10-19T07:59:06.861Z,14.42
2017-10-19T08:00:06.883Z,14.49
2017-10-19T08:01:06.857Z,14.62
2017-10-19T08:02:06.886Z,14.80
2017-10-19T08:03:06.908Z,14.80
2017-10-19T08:04:06.948Z,14.93
2017-10-19T08:05:06.880Z,14.98
2017-10-19T08:06:06.919Z,14.93
2017-10-19T08:07:06.915Z,15.01
2017-10-19T08:08:06.944Z,14.95
2017-10-19T08:09:06.928Z,14.95
2017-10-19T08:10:06.957Z,15.02
2017-10-19T08:11:06.960Z,15.01
2017-10-19T08:12:06.973Z,15.06
2017-10-19T08:13:06.964Z,15.12
2017-10-19T08:14:06.962Z,15.11
2017-10-19T08:15:07.090Z,15.06
2017-10-19T08:16:06.999Z,15.05
2017-10-19T08:17:07.001Z,14.99
2017-10-19T08:18:07.028Z,15.06
2017-10-19T08:19:07.030Z,15.06
2017-10-19T08:20:07.042Z,15.02
2017-10-19T08:21:07.041Z,15.01
2017-10-19T08:22:07.087Z,15.11
2017-10-19T08:23:07.081Z,15.11
2017-10-19T08:24:07.080Z,15.02
2017-10-19T08:25:07.088Z,15.06
2017-10-19T08:26:07.062Z,15.08
2017-10-19T08:27:07.075Z,15.09
2017-10-19T08:28:07.118Z,15.05
2017-10-19T08:29:07.144Z,15.17
2017-10-19T08:30:07.144Z,15.20
2017-10-19T08:31:07.116Z,15.17
2017-10-19T08:32:07.116Z,15.15
2017-10-19T08:33:07.120Z,15.19
2017-10-19T08:34:07.163Z,15.19
2017-10-19T08:35:07.182Z,15.21
2017-10-19T08:36:07.168Z,15.21
2017-10-19T08:37:07.173Z,15.27
2017-10-19T08:38:07.164Z,15.24
2017-10-19T08:39:07.199Z,15.17
2017-10-19T08:40:07.198Z,15.30
2017-10-19T08:41:07.216Z,15.24
2017-10-19T08:42:07.207Z,15.33
2017-10-19T08:43:07.244Z,15.28
2017-10-19T08:44:07.252Z,15.21
2017-10-19T08:45:07.257Z,15.33
2017-10-19T08:46:07.237Z,15.38
2017-10-19T08:47:07.263Z,15.35
2017-10-19T08:48:07.280Z,15.39
2017-10-19T08:49:07.258Z,15.43
2017-10-19T08:50:07.271Z,15.46
2017-10-19T08:51:07.293Z,15.42
2017-10-19T08:52:07.324Z,15.42
2017-10-19T08:53:07.301Z,15.43
2017-10-19T08:54:07.323Z,15.43
2017-10-19T08:55:07.332Z,15.45
2017-10-19T08:56:07.346Z,15.43
2017-10-19T08:57:07.334Z,15.54
2017-10-19T08:58:07.355Z,15.67
2017-10-19T08:59:07.369Z,15.67
2017-10-19T09:00:07.362Z,15.78
2017-10-19T09:01:07.399Z,15.74
2017-10-19T09:02:07.401Z,15.84
2017-10-19T09:03:07.406Z,15.85
2017-10-19T09:04:07.448Z,15.99
2017-10-19T09:05:07.403Z,16.09
2017-10-19T09:06:07.428Z,16.11
2017-10-19T09:07:07.458Z,16.14
2017-10-19T09:08:07.433Z,16.20
2017-10-19T09:09:07.449Z,16.25
2017-10-19T09:10:07.467Z,16.31
2017-10-19T09:11:07.447Z,16.34
2017-10-19T09:12:07.477Z,16.30
2017-10-19T09:13:07.502Z,16.40
2017-10-19T09:14:07.474Z,16.52
2017-10-19T09:15:07.493Z,16.58
2017-10-19T09:16:07.505Z,16.71
2017-10-19T09:17:07.531Z,16.75
2017-10-19T09:18:07.527Z,16.70
2017-10-19T09:19:07.544Z,16.75
2017-10-19T09:20:07.532Z,16.88
2017-10-19T09:21:07.551Z,16.80
2017-10-19T09:22:07.593Z,16.71
2017-10-19T09:23:07.577Z,16.85
2017-10-19T09:24:07.589Z,16.95
2017-10-19T09:25:07.636Z,16.90
2017-10-19T09:26:07.632Z,17.03
2017-10-19T09:27:07.632Z,17.10
2017-10-19T09:28:07.622Z,17.08
2017-10-19T09:29:07.648Z,17.13
2017-10-19T09:30:07.641Z,17.20
2017-10-19T09:31:07.652Z,17.20
2017-10-19T09:32:07.673Z,17.28
2017-10-19T09:33:08.126Z,17.36
2017-10-19T09:34:07.687Z,17.36
2017-10-19T09:35:07.694Z,17.38
2017-10-19T09:36:07.703Z,17.32
2017-10-19T09:37:07.714Z,17.38
2017-10-19T09:38:07.730Z,17.46
2017-10-19T09:39:07.752Z,17.44
2017-10-19T09:40:07.998Z,17.50
2017-10-19T09:41:07.746Z,17.51
2017-10-19T09:42:08.565Z,17.51
2017-10-19T09:43:07.779Z,17.54
2017-10-19T09:44:07.786Z,17.51
2017-10-19T09:45:07.797Z,17.55
2017-10-19T09:46:07.813Z,17.54
2017-10-19T09:47:07.830Z,17.62
2017-10-19T09:48:07.833Z,17.71
2017-10-19T09:49:07.870Z,17.69
2017-10-19T09:50:07.877Z,17.66
2017-10-19T09:51:07.887Z,17.78
2017-10-19T09:52:08.821Z,17.73
2017-10-19T09:53:07.871Z,17.79
2017-10-19T09:54:07.881Z,17.82
2017-10-19T09:55:07.907Z,17.81
2017-10-19T09:56:07.900Z,17.89
2017-10-19T09:57:07.928Z,18.02
2017-10-19T09:58:07.964Z,17.88
2017-10-19T09:59:07.968Z,17.95
2017-10-19T10:00:07.951Z,17.99
2017-10-19T10:01:07.999Z,17.99
2017-10-19T10:02:07.969Z,17.97
2017-10-19T10:03:07.975Z,18.06
2017-10-19T10:04:08.008Z,17.99
2017-10-19T10:05:08.019Z,18.18
2017-10-19T10:06:07.999Z,18.12
2017-10-19T10:07:08.017Z,18.21
2017-10-19T10:08:08.043Z,18.13
2017-10-19T10:09:08.080Z,18.06
2017-10-19T10:10:08.041Z,18.10
2017-10-19T10:11:08.365Z,18.19
2017-10-19T10:12:08.077Z,18.19
2017-10-19T10:13:08.084Z,18.28
2017-10-19T10:14:08.079Z,18.22
2017-10-19T10:15:08.104Z,18.27
2017-10-19T10:16:08.128Z,18.33
2017-10-19T10:17:08.112Z,18.29
2017-10-19T10:18:08.143Z,18.42
2017-10-19T10:19:08.136Z,18.46
2017-10-19T10:20:08.155Z,18.34
2017-10-19T10:21:08.184Z,18.40
2017-10-19T10:22:08.180Z,18.46
2017-10-19T10:23:08.230Z,18.47
2017-10-19T10:24:08.180Z,18.46
2017-10-19T10:25:08.214Z,18.50
2017-10-19T10:26:08.218Z,18.55
2017-10-19T10:27:08.233Z,18.54
2017-10-19T10:28:08.240Z,18.50
2017-10-19T10:29:08.231Z,18.57
2017-10-19T10:30:08.295Z,18.59
2017-10-19T10:31:08.269Z,18.46
2017-10-19T10:32:08.289Z,18.57
2017-10-19T10:33:08.330Z,18.54
2017-10-19T10:34:08.294Z,18.57
2017-10-19T10:35:08.324Z,18.46
2017-10-19T10:36:08.327Z,18.50
2017-10-19T10:37:08.329Z,18.40
2017-10-19T10:38:08.399Z,18.36
2017-10-19T10:39:08.340Z,18.36
2017-10-19T10:40:08.349Z,18.39
2017-10-19T10:41:08.380Z,18.40
2017-10-19T10:42:08.403Z,18.43
2017-10-19T10:43:08.416Z,18.44
2017-10-19T10:44:08.419Z,18.47
2017-10-19T10:45:08.417Z,18.50
2017-10-19T10:46:08.416Z,18.57
2017-10-19T10:47:08.448Z,18.43
2017-10-19T10:48:08.482Z,18.54
2017-10-19T10:49:08.472Z,18.57
2017-10-19T10:50:08.458Z,18.59
2017-10-19T10:51:08.462Z,18.59
2017-10-19T10:52:08.493Z,18.59
2017-10-19T10:53:08.520Z,18.62
2017-10-19T10:54:08.549Z,18.59
2017-10-19T10:55:08.570Z,18.61
2017-10-19T10:56:08.550Z,18.68
2017-10-19T10:57:08.550Z,18.64
2017-10-19T10:58:08.544Z,18.67
2017-10-19T10:59:08.559Z,18.72
2017-10-19T11:00:08.582Z,18.62
2017-10-19T11:01:08.589Z,18.67
2017-10-19T11:02:08.600Z,18.70
2017-10-19T11:03:08.621Z,18.72
2017-10-19T11:04:08.634Z,18.59
2017-10-19T11:05:08.671Z,18.64
2017-10-19T11:06:08.662Z,18.57
2017-10-19T11:07:08.650Z,18.64
2017-10-19T11:08:08.674Z,18.65
2017-10-19T11:09:08.687Z,18.65
2017-10-19T11:10:08.681Z,18.67
2017-10-19T11:11:08.732Z,18.79
2017-10-19T11:12:09.146Z,18.76
2017-10-19T11:13:08.771Z,18.77
2017-10-19T11:14:08.737Z,18.76
2017-10-19T11:15:08.731Z,18.80
2017-10-19T11:16:08.758Z,18.83
2017-10-19T11:17:08.772Z,18.77
2017-10-19T11:18:08.776Z,18.83
2017-10-19T11:19:08.797Z,18.84
2017-10-19T11:20:08.809Z,18.90
2017-10-19T11:21:08.794Z,18.91
2017-10-19T11:22:08.812Z,18.91
2017-10-19T11:23:08.835Z,18.90
2017-10-19T11:24:08.847Z,19.10
2017-10-19T11:25:08.839Z,19.05
2017-10-19T11:26:08.868Z,19.08
2017-10-19T11:27:08.882Z,19.05
2017-10-19T11:28:08.905Z,19.08
2017-10-19T11:29:08.916Z,19.14
2017-10-19T11:30:08.919Z,19.11
2017-10-19T11:31:08.945Z,19.15
2017-10-19T11:32:08.977Z,19.17
2017-10-19T11:33:08.927Z,19.17
2017-10-19T11:34:08.944Z,19.21
2017-10-19T11:35:08.948Z,19.17
2017-10-19T11:36:08.971Z,19.20
2017-10-19T11:37:08.978Z,19.24
2017-10-19T11:38:08.989Z,19.28
2017-10-19T11:39:09.019Z,19.40
2017-10-19T11:40:09.009Z,19.47
2017-10-19T11:41:09.018Z,19.46
2017-10-19T11:42:09.045Z,19.53
2017-10-19T11:43:09.062Z,19.60
2017-10-19T11:44:09.043Z,19.66
2017-10-19T11:45:09.076Z,19.69
2017-10-19T11:46:09.081Z,19.66
2017-10-19T11:47:09.113Z,19.66
2017-10-19T11:48:09.101Z,19.66
2017-10-19T11:49:09.132Z,19.72
2017-10-19T11:50:09.132Z,19.78
2017-10-19T11:51:09.183Z,19.75
2017-10-19T11:52:09.155Z,19.78
2017-10-19T11:53:09.158Z,19.83
2017-10-19T11:54:09.150Z,19.90
2017-10-19T11:55:09.184Z,19.90
2017-10-19T11:56:09.208Z,19.98
2017-10-19T11:57:09.249Z,20.00
2017-10-19T11:58:09.266Z,20.12
2017-10-19T11:59:09.215Z,20.02
2017-10-19T12:00:09.250Z,20.09
2017-10-19T12:01:09.245Z,20.06
2017-10-19T12:02:09.262Z,20.03
2017-10-19T12:03:09.301Z,20.23
2017-10-19T12:04:09.309Z,20.23
2017-10-19T12:05:09.305Z,20.21
2017-10-19T12:06:09.325Z,20.16
2017-10-19T12:07:09.355Z,20.28
2017-10-19T12:08:09.332Z,20.35
2017-10-19T12:09:09.363Z,20.33
2017-10-19T12:10:09.364Z,20.33
2017-10-19T12:11:09.378Z,20.34
2017-10-19T12:12:09.392Z,20.39
2017-10-19T12:13:09.389Z,20.38
2017-10-19T12:14:09.394Z,20.35
2017-10-19T12:15:09.430Z,20.46
2017-10-19T12:16:09.433Z,20.47
2017-10-19T12:17:09.443Z,20.56
2017-10-19T12:18:09.446Z,20.51
2017-10-19T12:19:09.467Z,20.50
2017-10-19T12:20:09.519Z,20.56
2017-10-19T12:21:09.474Z,20.51
2017-10-19T12:22:09.486Z,20.56
2017-10-19T12:23:09.514Z,20.56
2017-10-19T12:24:09.566Z,20.64
2017-10-19T12:25:09.527Z,20.59
2017-10-19T12:26:09.557Z,20.68
2017-10-19T12:27:09.560Z,20.69
2017-10-19T12:28:09.567Z,20.76
2017-10-19T12:29:09.595Z,20.68
2017-10-19T12:30:09.628Z,20.79
2017-10-19T12:31:09.609Z,20.74
2017-10-19T12:32:09.609Z,20.89
2017-10-19T12:33:09.644Z,20.90
2017-10-19T12:34:09.641Z,20.81
2017-10-19T12:35:09.651Z,20.91
2017-10-19T12:36:09.660Z,21.04
2017-10-19T12:37:09.674Z,21.01
2017-10-19T12:38:09.685Z,20.98
2017-10-19T12:39:09.721Z,21.05
2017-10-19T12:40:09.736Z,21.14
2017-10-19T12:41:09.750Z,21.09
2017-10-19T12:42:09.732Z,21.06
2017-10-19T12:43:09.753Z,21.11
2017-10-19T12:44:09.764Z,21.19
2017-10-19T12:45:09.795Z,21.23
2017-10-19T12:46:09.828Z,21.29
2017-10-19T12:47:09.817Z,21.26
2017-10-19T12:48:09.815Z,21.32
2017-10-19T12:49:09.809Z,21.34
2017-10-19T12:50:09.833Z,21.27
2017-10-19T12:51:09.876Z,21.36
2017-10-19T12:52:09.861Z,21.38